sensor_id;sensor_type;location;lat;lon;timestamp;pressure;altitude;pressure_sealevel;temperature
19666;BMP180;9980;51.020;7.772;2023-08-07T00:02:04;97025.00;;;16.70
19666;BMP180;9980;51.020;7.772;2023-08-07T00:04:31;97024.00;;;16.60
19666;BMP180;9980;51.020;7.772;2023-08-07T00:06:58;97015.00;;;16.60
19666;BMP180;9980;51.020;7.772;2023-08-07T00:09:24;97032.00;;;16.60
19666;BMP180;9980;51.020;7.772;2023-08-07T00:11:52;97022.00;;;16.60
19666;BMP180;9980;51.020;7.772;2023-08-07T00:14:19;97025.00;;;16.60
19666;BMP180;9980;51.020;7.772;2023-08-07T00:16:46;97024.00;;;16.60
19666;BMP180;9980;51.020;7.772;2023-08-07T00:19:13;97022.00;;;16.60
19666;BMP180;9980;51.020;7.772;2023-08-07T00:21:40;97024.00;;;16.60
19666;BMP180;9980;51.020;7.772;2023-08-07T00:24:07;97013.00;;;16.60
19666;BMP180;9980;51.020;7.772;2023-08-07T00:26:34;97013.00;;;16.60
19666;BMP180;9980;51.020;7.772;2023-08-07T00:29:01;97007.00;;;16.60
19666;BMP180;9980;51.020;7.772;2023-08-07T00:31:28;97018.00;;;16.60
19666;BMP180;9980;51.020;7.772;2023-08-07T00:33:59;97029.00;;;16.60
19666;BMP180;9980;51.020;7.772;2023-08-07T00:36:26;97008.00;;;16.60
19666;BMP180;9980;51.020;7.772;2023-08-07T00:38:55;97026.00;;;16.60
19666;BMP180;9980;51.020;7.772;2023-08-07T00:41:23;97005.00;;;16.60
19666;BMP180;9980;51.020;7.772;2023-08-07T00:43:50;97008.00;;;16.50
19666;BMP180;9980;51.020;7.772;2023-08-07T00:46:17;97019.00;;;16.60
19666;BMP180;9980;51.020;7.772;2023-08-07T00:48:45;97013.00;;;16.60
19666;BMP180;9980;51.020;7.772;2023-08-07T00:51:15;97019.00;;;16.60
19666;BMP180;9980;51.020;7.772;2023-08-07T00:53:42;97007.00;;;16.60
19666;BMP180;9980;51.020;7.772;2023-08-07T00:56:10;97013.00;;;16.50
19666;BMP180;9980;51.020;7.772;2023-08-07T00:58:37;97018.00;;;16.60
19666;BMP180;9980;51.020;7.772;2023-08-07T01:01:05;97023.00;;;16.60
19666;BMP180;9980;51.020;7.772;2023-08-07T01:03:32;97015.00;;;16.60
19666;BMP180;9980;51.020;7.772;2023-08-07T01:06:01;97003.00;;;16.60
19666;BMP180;9980;51.020;7.772;2023-08-07T01:08:28;97009.00;;;16.50
19666;BMP180;9980;51.020;7.772;2023-08-07T01:14:37;97009.00;;;16.50
19666;BMP180;9980;51.020;7.772;2023-08-07T01:17:15;97016.00;;;16.50
19666;BMP180;9980;51.020;7.772;2023-08-07T01:19:43;96992.00;;;16.50
19666;BMP180;9980;51.020;7.772;2023-08-07T01:22:14;97002.00;;;16.40
19666;BMP180;9980;51.020;7.772;2023-08-07T01:24:50;97013.00;;;16.40
19666;BMP180;9980;51.020;7.772;2023-08-07T01:33:09;97019.00;;;16.40
19666;BMP180;9980;51.020;7.772;2023-08-07T01:35:43;97022.00;;;16.40
19666;BMP180;9980;51.020;7.772;2023-08-07T01:38:15;97024.00;;;16.40
19666;BMP180;9980;51.020;7.772;2023-08-07T01:40:43;97011.00;;;16.40
19666;BMP180;9980;51.020;7.772;2023-08-07T01:43:11;97025.00;;;16.40
19666;BMP180;9980;51.020;7.772;2023-08-07T01:45:38;97031.00;;;16.40
19666;BMP180;9980;51.020;7.772;2023-08-07T01:48:07;97006.00;;;16.40
19666;BMP180;9980;51.020;7.772;2023-08-07T01:50:34;97026.00;;;16.40
19666;BMP180;9980;51.020;7.772;2023-08-07T01:53:02;97014.00;;;16.40
19666;BMP180;9980;51.020;7.772;2023-08-07T01:55:29;97044.00;;;16.40
19666;BMP180;9980;51.020;7.772;2023-08-07T01:57:56;97028.00;;;16.40
19666;BMP180;9980;51.020;7.772;2023-08-07T02:00:23;97022.00;;;16.40
19666;BMP180;9980;51.020;7.772;2023-08-07T02:02:50;97034.00;;;16.40
19666;BMP180;9980;51.020;7.772;2023-08-07T02:05:17;97040.00;;;16.40
19666;BMP180;9980;51.020;7.772;2023-08-07T02:07:44;97036.00;;;16.40
19666;BMP180;9980;51.020;7.772;2023-08-07T02:10:11;97041.00;;;16.40
19666;BMP180;9980;51.020;7.772;2023-08-07T02:12:38;97042.00;;;16.30
19666;BMP180;9980;51.020;7.772;2023-08-07T02:15:06;97042.00;;;16.30
19666;BMP180;9980;51.020;7.772;2023-08-07T02:17:34;97050.00;;;16.30
19666;BMP180;9980;51.020;7.772;2023-08-07T02:20:02;97046.00;;;16.30
19666;BMP180;9980;51.020;7.772;2023-08-07T02:22:29;97049.00;;;16.30
19666;BMP180;9980;51.020;7.772;2023-08-07T02:24:57;97042.00;;;16.30
19666;BMP180;9980;51.020;7.772;2023-08-07T02:27:24;97042.00;;;16.30
19666;BMP180;9980;51.020;7.772;2023-08-07T02:29:51;97045.00;;;16.30
19666;BMP180;9980;51.020;7.772;2023-08-07T02:32:18;97051.00;;;16.30
19666;BMP180;9980;51.020;7.772;2023-08-07T02:34:45;97045.00;;;16.30
19666;BMP180;9980;51.020;7.772;2023-08-07T02:37:12;97071.00;;;16.30
19666;BMP180;9980;51.020;7.772;2023-08-07T02:39:39;97056.00;;;16.30
19666;BMP180;9980;51.020;7.772;2023-08-07T02:42:06;97054.00;;;16.30
19666;BMP180;9980;51.020;7.772;2023-08-07T02:44:34;97047.00;;;16.30
19666;BMP180;9980;51.020;7.772;2023-08-07T02:47:01;97057.00;;;16.30
19666;BMP180;9980;51.020;7.772;2023-08-07T02:49:28;97067.00;;;16.30
19666;BMP180;9980;51.020;7.772;2023-08-07T02:51:55;97039.00;;;16.30
19666;BMP180;9980;51.020;7.772;2023-08-07T02:54:22;97057.00;;;16.30
19666;BMP180;9980;51.020;7.772;2023-08-07T02:56:49;97060.00;;;16.30
19666;BMP180;9980;51.020;7.772;2023-08-07T02:59:16;97063.00;;;16.30
19666;BMP180;9980;51.020;7.772;2023-08-07T03:01:44;97047.00;;;16.30
19666;BMP180;9980;51.020;7.772;2023-08-07T03:04:11;97050.00;;;16.20
19666;BMP180;9980;51.020;7.772;2023-08-07T03:06:38;97051.00;;;16.20
19666;BMP180;9980;51.020;7.772;2023-08-07T03:09:05;97050.00;;;16.20
19666;BMP180;9980;51.020;7.772;2023-08-07T03:11:32;97047.00;;;16.20
19666;BMP180;9980;51.020;7.772;2023-08-07T03:13:59;97042.00;;;16.20
19666;BMP180;9980;51.020;7.772;2023-08-07T03:16:25;97042.00;;;16.30
19666;BMP180;9980;51.020;7.772;2023-08-07T03:18:53;97057.00;;;16.20
19666;BMP180;9980;51.020;7.772;2023-08-07T03:21:20;97040.00;;;16.20
19666;BMP180;9980;51.020;7.772;2023-08-07T03:23:47;97055.00;;;16.20
19666;BMP180;9980;51.020;7.772;2023-08-07T03:26:14;97056.00;;;16.20
19666;BMP180;9980;51.020;7.772;2023-08-07T03:28:47;97061.00;;;16.20
19666;BMP180;9980;51.020;7.772;2023-08-07T03:31:15;97054.00;;;16.20
19666;BMP180;9980;51.020;7.772;2023-08-07T03:33:42;97065.00;;;16.20
19666;BMP180;9980;51.020;7.772;2023-08-07T03:36:09;97072.00;;;16.20
19666;BMP180;9980;51.020;7.772;2023-08-07T03:38:37;97047.00;;;16.20
19666;BMP180;9980;51.020;7.772;2023-08-07T03:41:04;97054.00;;;16.20
19666;BMP180;9980;51.020;7.772;2023-08-07T03:43:32;97058.00;;;16.20
19666;BMP180;9980;51.020;7.772;2023-08-07T03:45:59;97074.00;;;16.20
19666;BMP180;9980;51.020;7.772;2023-08-07T03:48:30;97086.00;;;16.20
19666;BMP180;9980;51.020;7.772;2023-08-07T03:51:07;97077.00;;;16.20
19666;BMP180;9980;51.020;7.772;2023-08-07T03:53:42;97050.00;;;16.20
19666;BMP180;9980;51.020;7.772;2023-08-07T03:56:09;97061.00;;;16.10
19666;BMP180;9980;51.020;7.772;2023-08-07T03:58:36;97066.00;;;16.10
19666;BMP180;9980;51.020;7.772;2023-08-07T04:01:03;97070.00;;;16.10
19666;BMP180;9980;51.020;7.772;2023-08-07T04:03:31;97076.00;;;16.10
19666;BMP180;9980;51.020;7.772;2023-08-07T04:06:00;97073.00;;;16.10
19666;BMP180;9980;51.020;7.772;2023-08-07T04:08:28;97086.00;;;16.10
19666;BMP180;9980;51.020;7.772;2023-08-07T04:11:04;97066.00;;;16.10
19666;BMP180;9980;51.020;7.772;2023-08-07T04:13:33;97064.00;;;16.10
19666;BMP180;9980;51.020;7.772;2023-08-07T04:16:00;97064.00;;;16.10
19666;BMP180;9980;51.020;7.772;2023-08-07T04:18:29;97077.00;;;16.10
19666;BMP180;9980;51.020;7.772;2023-08-07T04:20:56;97073.00;;;16.10
19666;BMP180;9980;51.020;7.772;2023-08-07T04:23:24;97081.00;;;16.10
19666;BMP180;9980;51.020;7.772;2023-08-07T04:25:53;97083.00;;;16.10
19666;BMP180;9980;51.020;7.772;2023-08-07T04:28:20;97096.00;;;16.10
19666;BMP180;9980;51.020;7.772;2023-08-07T04:30:51;97082.00;;;16.10
19666;BMP180;9980;51.020;7.772;2023-08-07T04:33:22;97085.00;;;16.10
19666;BMP180;9980;51.020;7.772;2023-08-07T04:35:49;97062.00;;;16.10
19666;BMP180;9980;51.020;7.772;2023-08-07T04:38:17;97088.00;;;16.10
19666;BMP180;9980;51.020;7.772;2023-08-07T04:40:49;97079.00;;;16.10
19666;BMP180;9980;51.020;7.772;2023-08-07T04:43:18;97089.00;;;16.10
19666;BMP180;9980;51.020;7.772;2023-08-07T04:45:47;97091.00;;;16.20
19666;BMP180;9980;51.020;7.772;2023-08-07T04:48:15;97086.00;;;16.20
19666;BMP180;9980;51.020;7.772;2023-08-07T04:50:42;97095.00;;;16.10
19666;BMP180;9980;51.020;7.772;2023-08-07T04:53:09;97082.00;;;16.10
19666;BMP180;9980;51.020;7.772;2023-08-07T04:55:36;97083.00;;;16.10
19666;BMP180;9980;51.020;7.772;2023-08-07T04:58:03;97086.00;;;16.10
19666;BMP180;9980;51.020;7.772;2023-08-07T05:00:30;97102.00;;;16.10
19666;BMP180;9980;51.020;7.772;2023-08-07T05:02:57;97093.00;;;16.10
19666;BMP180;9980;51.020;7.772;2023-08-07T05:05:24;97105.00;;;16.10
19666;BMP180;9980;51.020;7.772;2023-08-07T05:07:51;97114.00;;;16.10
19666;BMP180;9980;51.020;7.772;2023-08-07T05:10:18;97104.00;;;16.10
19666;BMP180;9980;51.020;7.772;2023-08-07T05:12:45;97113.00;;;16.10
19666;BMP180;9980;51.020;7.772;2023-08-07T05:15:12;97128.00;;;16.10
19666;BMP180;9980;51.020;7.772;2023-08-07T05:17:39;97122.00;;;16.10
19666;BMP180;9980;51.020;7.772;2023-08-07T05:20:07;97112.00;;;16.10
19666;BMP180;9980;51.020;7.772;2023-08-07T05:22:35;97117.00;;;16.10
19666;BMP180;9980;51.020;7.772;2023-08-07T05:25:02;97109.00;;;16.10
19666;BMP180;9980;51.020;7.772;2023-08-07T05:27:29;97120.00;;;16.20
19666;BMP180;9980;51.020;7.772;2023-08-07T05:29:56;97125.00;;;16.20
19666;BMP180;9980;51.020;7.772;2023-08-07T05:32:23;97131.00;;;16.20
19666;BMP180;9980;51.020;7.772;2023-08-07T05:34:50;97115.00;;;16.20
19666;BMP180;9980;51.020;7.772;2023-08-07T05:37:17;97117.00;;;16.20
19666;BMP180;9980;51.020;7.772;2023-08-07T05:39:44;97119.00;;;16.20
19666;BMP180;9980;51.020;7.772;2023-08-07T05:42:12;97134.00;;;16.10
19666;BMP180;9980;51.020;7.772;2023-08-07T05:44:39;97126.00;;;16.20
19666;BMP180;9980;51.020;7.772;2023-08-07T05:47:06;97133.00;;;16.20
19666;BMP180;9980;51.020;7.772;2023-08-07T05:49:34;97130.00;;;16.10
19666;BMP180;9980;51.020;7.772;2023-08-07T05:52:01;97140.00;;;16.20
19666;BMP180;9980;51.020;7.772;2023-08-07T05:54:27;97140.00;;;16.20
19666;BMP180;9980;51.020;7.772;2023-08-07T05:56:54;97139.00;;;16.10
19666;BMP180;9980;51.020;7.772;2023-08-07T05:59:21;97135.00;;;16.10
19666;BMP180;9980;51.020;7.772;2023-08-07T06:01:49;97135.00;;;16.10
19666;BMP180;9980;51.020;7.772;2023-08-07T06:04:15;97151.00;;;16.20
19666;BMP180;9980;51.020;7.772;2023-08-07T06:06:43;97142.00;;;16.20
19666;BMP180;9980;51.020;7.772;2023-08-07T06:09:10;97147.00;;;16.20
19666;BMP180;9980;51.020;7.772;2023-08-07T06:11:37;97137.00;;;16.20
19666;BMP180;9980;51.020;7.772;2023-08-07T06:14:04;97149.00;;;16.20
19666;BMP180;9980;51.020;7.772;2023-08-07T06:16:31;97160.00;;;16.20
19666;BMP180;9980;51.020;7.772;2023-08-07T06:18:58;97166.00;;;16.20
19666;BMP180;9980;51.020;7.772;2023-08-07T06:21:25;97155.00;;;16.20
19666;BMP180;9980;51.020;7.772;2023-08-07T06:23:52;97157.00;;;16.20
19666;BMP180;9980;51.020;7.772;2023-08-07T06:26:19;97157.00;;;16.20
19666;BMP180;9980;51.020;7.772;2023-08-07T06:28:47;97158.00;;;16.20
19666;BMP180;9980;51.020;7.772;2023-08-07T06:31:15;97167.00;;;16.20
19666;BMP180;9980;51.020;7.772;2023-08-07T06:33:43;97155.00;;;16.30
19666;BMP180;9980;51.020;7.772;2023-08-07T06:36:10;97156.00;;;16.30
19666;BMP180;9980;51.020;7.772;2023-08-07T06:38:37;97159.00;;;16.30
19666;BMP180;9980;51.020;7.772;2023-08-07T06:41:05;97169.00;;;16.20
19666;BMP180;9980;51.020;7.772;2023-08-07T06:43:32;97168.00;;;16.20
19666;BMP180;9980;51.020;7.772;2023-08-07T06:45:59;97159.00;;;16.30
19666;BMP180;9980;51.020;7.772;2023-08-07T06:48:26;97167.00;;;16.30
19666;BMP180;9980;51.020;7.772;2023-08-07T06:50:53;97171.00;;;16.20
19666;BMP180;9980;51.020;7.772;2023-08-07T06:53:20;97161.00;;;16.30
19666;BMP180;9980;51.020;7.772;2023-08-07T06:55:47;97162.00;;;16.30
19666;BMP180;9980;51.020;7.772;2023-08-07T06:58:14;97160.00;;;16.30
19666;BMP180;9980;51.020;7.772;2023-08-07T07:00:41;97171.00;;;16.30
19666;BMP180;9980;51.020;7.772;2023-08-07T07:03:08;97176.00;;;16.30
19666;BMP180;9980;51.020;7.772;2023-08-07T07:05:38;97179.00;;;16.30
19666;BMP180;9980;51.020;7.772;2023-08-07T07:08:05;97176.00;;;16.40
19666;BMP180;9980;51.020;7.772;2023-08-07T07:10:32;97179.00;;;16.40
19666;BMP180;9980;51.020;7.772;2023-08-07T07:12:59;97178.00;;;16.40
19666;BMP180;9980;51.020;7.772;2023-08-07T07:15:26;97189.00;;;16.40
19666;BMP180;9980;51.020;7.772;2023-08-07T07:17:53;97174.00;;;16.40
19666;BMP180;9980;51.020;7.772;2023-08-07T07:20:20;97184.00;;;16.40
19666;BMP180;9980;51.020;7.772;2023-08-07T07:22:47;97189.00;;;16.40
19666;BMP180;9980;51.020;7.772;2023-08-07T07:25:14;97196.00;;;16.50
19666;BMP180;9980;51.020;7.772;2023-08-07T07:27:42;97194.00;;;16.50
19666;BMP180;9980;51.020;7.772;2023-08-07T07:30:09;97203.00;;;16.50
19666;BMP180;9980;51.020;7.772;2023-08-07T07:32:36;97200.00;;;16.50
19666;BMP180;9980;51.020;7.772;2023-08-07T07:35:04;97209.00;;;16.50
19666;BMP180;9980;51.020;7.772;2023-08-07T07:37:31;97208.00;;;16.50
19666;BMP180;9980;51.020;7.772;2023-08-07T07:39:58;97208.00;;;16.50
19666;BMP180;9980;51.020;7.772;2023-08-07T07:42:25;97211.00;;;16.60
19666;BMP180;9980;51.020;7.772;2023-08-07T07:44:52;97208.00;;;16.60
19666;BMP180;9980;51.020;7.772;2023-08-07T07:47:19;97225.00;;;16.60
19666;BMP180;9980;51.020;7.772;2023-08-07T07:49:47;97221.00;;;16.60
19666;BMP180;9980;51.020;7.772;2023-08-07T07:52:15;97215.00;;;16.60
19666;BMP180;9980;51.020;7.772;2023-08-07T07:54:42;97220.00;;;16.60
19666;BMP180;9980;51.020;7.772;2023-08-07T07:57:09;97216.00;;;16.60
19666;BMP180;9980;51.020;7.772;2023-08-07T07:59:38;97223.00;;;16.60
19666;BMP180;9980;51.020;7.772;2023-08-07T08:02:05;97229.00;;;16.60
19666;BMP180;9980;51.020;7.772;2023-08-07T08:04:32;97252.00;;;16.60
19666;BMP180;9980;51.020;7.772;2023-08-07T08:07:02;97236.00;;;16.60
19666;BMP180;9980;51.020;7.772;2023-08-07T08:09:30;97244.00;;;16.70
19666;BMP180;9980;51.020;7.772;2023-08-07T08:11:57;97247.00;;;16.70
19666;BMP180;9980;51.020;7.772;2023-08-07T08:14:24;97255.00;;;16.70
19666;BMP180;9980;51.020;7.772;2023-08-07T08:16:51;97256.00;;;16.70
19666;BMP180;9980;51.020;7.772;2023-08-07T08:19:18;97272.00;;;16.80
19666;BMP180;9980;51.020;7.772;2023-08-07T08:21:45;97271.00;;;16.80
19666;BMP180;9980;51.020;7.772;2023-08-07T08:24:15;97279.00;;;16.80
19666;BMP180;9980;51.020;7.772;2023-08-07T08:26:41;97271.00;;;16.80
19666;BMP180;9980;51.020;7.772;2023-08-07T08:29:08;97280.00;;;16.80
19666;BMP180;9980;51.020;7.772;2023-08-07T08:31:36;97274.00;;;16.90
19666;BMP180;9980;51.020;7.772;2023-08-07T08:34:03;97288.00;;;16.90
19666;BMP180;9980;51.020;7.772;2023-08-07T08:36:32;97286.00;;;16.90
19666;BMP180;9980;51.020;7.772;2023-08-07T08:38:59;97293.00;;;16.90
19666;BMP180;9980;51.020;7.772;2023-08-07T08:41:26;97294.00;;;17.00
19666;BMP180;9980;51.020;7.772;2023-08-07T08:43:55;97291.00;;;17.00
19666;BMP180;9980;51.020;7.772;2023-08-07T08:46:24;97290.00;;;17.00
19666;BMP180;9980;51.020;7.772;2023-08-07T08:48:57;97300.00;;;17.00
19666;BMP180;9980;51.020;7.772;2023-08-07T08:51:26;97290.00;;;17.00
19666;BMP180;9980;51.020;7.772;2023-08-07T08:53:53;97295.00;;;17.10
19666;BMP180;9980;51.020;7.772;2023-08-07T08:56:24;97297.00;;;17.10
19666;BMP180;9980;51.020;7.772;2023-08-07T08:58:51;97292.00;;;17.10
19666;BMP180;9980;51.020;7.772;2023-08-07T09:01:18;97320.00;;;17.10
19666;BMP180;9980;51.020;7.772;2023-08-07T09:03:46;97299.00;;;17.10
19666;BMP180;9980;51.020;7.772;2023-08-07T09:06:13;97304.00;;;17.20
19666;BMP180;9980;51.020;7.772;2023-08-07T09:08:43;97310.00;;;17.20
19666;BMP180;9980;51.020;7.772;2023-08-07T09:11:14;97310.00;;;17.20
19666;BMP180;9980;51.020;7.772;2023-08-07T09:13:42;97319.00;;;17.20
19666;BMP180;9980;51.020;7.772;2023-08-07T09:16:12;97321.00;;;17.20
19666;BMP180;9980;51.020;7.772;2023-08-07T09:18:39;97317.00;;;17.30
19666;BMP180;9980;51.020;7.772;2023-08-07T09:21:07;97321.00;;;17.30
19666;BMP180;9980;51.020;7.772;2023-08-07T09:23:34;97327.00;;;17.30
19666;BMP180;9980;51.020;7.772;2023-08-07T09:26:03;97328.00;;;17.40
19666;BMP180;9980;51.020;7.772;2023-08-07T09:28:32;97330.00;;;17.40
19666;BMP180;9980;51.020;7.772;2023-08-07T09:30:59;97335.00;;;17.40
19666;BMP180;9980;51.020;7.772;2023-08-07T09:33:29;97346.00;;;17.40
19666;BMP180;9980;51.020;7.772;2023-08-07T09:36:01;97343.00;;;17.40
19666;BMP180;9980;51.020;7.772;2023-08-07T09:38:32;97336.00;;;17.40
19666;BMP180;9980;51.020;7.772;2023-08-07T09:41:00;97347.00;;;17.50
19666;BMP180;9980;51.020;7.772;2023-08-07T09:43:34;97343.00;;;17.50
19666;BMP180;9980;51.020;7.772;2023-08-07T09:46:07;97349.00;;;17.60
19666;BMP180;9980;51.020;7.772;2023-08-07T09:48:43;97353.00;;;17.60
19666;BMP180;9980;51.020;7.772;2023-08-07T09:51:11;97365.00;;;17.70
19666;BMP180;9980;51.020;7.772;2023-08-07T09:53:38;97376.00;;;17.70
19666;BMP180;9980;51.020;7.772;2023-08-07T09:56:06;97376.00;;;17.80
19666;BMP180;9980;51.020;7.772;2023-08-07T09:58:33;97384.00;;;17.90
19666;BMP180;9980;51.020;7.772;2023-08-07T10:01:03;97375.00;;;17.90
19666;BMP180;9980;51.020;7.772;2023-08-07T10:03:31;97372.00;;;18.00
19666;BMP180;9980;51.020;7.772;2023-08-07T10:05:59;97370.00;;;18.00
19666;BMP180;9980;51.020;7.772;2023-08-07T10:08:27;97378.00;;;18.10
19666;BMP180;9980;51.020;7.772;2023-08-07T10:10:54;97376.00;;;18.10
19666;BMP180;9980;51.020;7.772;2023-08-07T10:13:23;97396.00;;;18.10
19666;BMP180;9980;51.020;7.772;2023-08-07T10:16:05;97396.00;;;18.20
19666;BMP180;9980;51.020;7.772;2023-08-07T10:18:33;97393.00;;;18.20
19666;BMP180;9980;51.020;7.772;2023-08-07T10:21:04;97396.00;;;18.20
19666;BMP180;9980;51.020;7.772;2023-08-07T10:23:35;97400.00;;;18.30
19666;BMP180;9980;51.020;7.772;2023-08-07T10:26:06;97406.00;;;18.30
19666;BMP180;9980;51.020;7.772;2023-08-07T10:28:39;97400.00;;;18.30
19666;BMP180;9980;51.020;7.772;2023-08-07T10:31:08;97404.00;;;18.40
19666;BMP180;9980;51.020;7.772;2023-08-07T10:33:36;97411.00;;;18.50
19666;BMP180;9980;51.020;7.772;2023-08-07T10:36:11;97417.00;;;18.50
19666;BMP180;9980;51.020;7.772;2023-08-07T10:38:40;97418.00;;;18.60
19666;BMP180;9980;51.020;7.772;2023-08-07T10:41:13;97411.00;;;18.70
19666;BMP180;9980;51.020;7.772;2023-08-07T10:43:43;97418.00;;;18.80
19666;BMP180;9980;51.020;7.772;2023-08-07T10:46:20;97419.00;;;18.80
19666;BMP180;9980;51.020;7.772;2023-08-07T10:48:55;97418.00;;;18.80
19666;BMP180;9980;51.020;7.772;2023-08-07T10:51:29;97432.00;;;18.80
19666;BMP180;9980;51.020;7.772;2023-08-07T10:54:01;97424.00;;;18.80
19666;BMP180;9980;51.020;7.772;2023-08-07T10:56:35;97419.00;;;18.80
19666;BMP180;9980;51.020;7.772;2023-08-07T10:59:12;97434.00;;;18.80
19666;BMP180;9980;51.020;7.772;2023-08-07T11:01:42;97439.00;;;18.80
19666;BMP180;9980;51.020;7.772;2023-08-07T11:04:13;97445.00;;;18.80
19666;BMP180;9980;51.020;7.772;2023-08-07T11:06:47;97440.00;;;18.80
19666;BMP180;9980;51.020;7.772;2023-08-07T11:09:14;97448.00;;;18.90
19666;BMP180;9980;51.020;7.772;2023-08-07T11:11:48;97446.00;;;18.90
19666;BMP180;9980;51.020;7.772;2023-08-07T11:14:18;97443.00;;;19.00
19666;BMP180;9980;51.020;7.772;2023-08-07T11:16:47;97444.00;;;19.10
19666;BMP180;9980;51.020;7.772;2023-08-07T11:19:18;97450.00;;;19.20
19666;BMP180;9980;51.020;7.772;2023-08-07T11:21:46;97454.00;;;19.30
19666;BMP180;9980;51.020;7.772;2023-08-07T11:24:16;97461.00;;;19.40
19666;BMP180;9980;51.020;7.772;2023-08-07T11:26:44;97463.00;;;19.40
19666;BMP180;9980;51.020;7.772;2023-08-07T11:29:18;97463.00;;;19.40
19666;BMP180;9980;51.020;7.772;2023-08-07T11:31:46;97461.00;;;19.40
19666;BMP180;9980;51.020;7.772;2023-08-07T11:34:13;97451.00;;;19.50
19666;BMP180;9980;51.020;7.772;2023-08-07T11:36:44;97466.00;;;19.50
19666;BMP180;9980;51.020;7.772;2023-08-07T11:39:12;97458.00;;;19.50
19666;BMP180;9980;51.020;7.772;2023-08-07T11:41:38;97462.00;;;19.50
19666;BMP180;9980;51.020;7.772;2023-08-07T11:44:10;97455.00;;;19.50
19666;BMP180;9980;51.020;7.772;2023-08-07T11:46:37;97456.00;;;19.50
19666;BMP180;9980;51.020;7.772;2023-08-07T11:49:04;97468.00;;;19.60
19666;BMP180;9980;51.020;7.772;2023-08-07T11:51:32;97444.00;;;19.50
19666;BMP180;9980;51.020;7.772;2023-08-07T11:53:59;97450.00;;;19.50
19666;BMP180;9980;51.020;7.772;2023-08-07T11:56:27;97447.00;;;19.50
19666;BMP180;9980;51.020;7.772;2023-08-07T11:58:54;97457.00;;;19.50
19666;BMP180;9980;51.020;7.772;2023-08-07T12:01:23;97464.00;;;19.50
19666;BMP180;9980;51.020;7.772;2023-08-07T12:04:07;97459.00;;;19.50
19666;BMP180;9980;51.020;7.772;2023-08-07T12:06:35;97450.00;;;19.50
19666;BMP180;9980;51.020;7.772;2023-08-07T12:09:03;97459.00;;;19.60
19666;BMP180;9980;51.020;7.772;2023-08-07T12:11:30;97447.00;;;19.60
19666;BMP180;9980;51.020;7.772;2023-08-07T12:14:00;97443.00;;;19.60
19666;BMP180;9980;51.020;7.772;2023-08-07T12:16:35;97436.00;;;19.60
19666;BMP180;9980;51.020;7.772;2023-08-07T12:19:04;97461.00;;;19.60
19666;BMP180;9980;51.020;7.772;2023-08-07T12:21:31;97470.00;;;19.50
19666;BMP180;9980;51.020;7.772;2023-08-07T12:23:59;97468.00;;;19.50
19666;BMP180;9980;51.020;7.772;2023-08-07T12:26:30;97464.00;;;19.50
19666;BMP180;9980;51.020;7.772;2023-08-07T12:28:57;97452.00;;;19.50
19666;BMP180;9980;51.020;7.772;2023-08-07T12:31:24;97451.00;;;19.50
19666;BMP180;9980;51.020;7.772;2023-08-07T12:33:51;97457.00;;;19.50
19666;BMP180;9980;51.020;7.772;2023-08-07T12:36:21;97459.00;;;19.60
19666;BMP180;9980;51.020;7.772;2023-08-07T12:38:48;97460.00;;;19.70
19666;BMP180;9980;51.020;7.772;2023-08-07T12:41:15;97462.00;;;19.80
19666;BMP180;9980;51.020;7.772;2023-08-07T12:43:45;97453.00;;;20.00
19666;BMP180;9980;51.020;7.772;2023-08-07T12:46:13;97445.00;;;20.10
19666;BMP180;9980;51.020;7.772;2023-08-07T12:48:42;97456.00;;;20.20
19666;BMP180;9980;51.020;7.772;2023-08-07T12:51:09;97447.00;;;20.40
19666;BMP180;9980;51.020;7.772;2023-08-07T12:53:36;97435.00;;;20.50
19666;BMP180;9980;51.020;7.772;2023-08-07T12:56:03;97446.00;;;20.60
19666;BMP180;9980;51.020;7.772;2023-08-07T12:58:32;97442.00;;;20.70
19666;BMP180;9980;51.020;7.772;2023-08-07T13:00:59;97453.00;;;20.80
19666;BMP180;9980;51.020;7.772;2023-08-07T13:03:26;97455.00;;;20.90
19666;BMP180;9980;51.020;7.772;2023-08-07T13:05:53;97445.00;;;20.90
19666;BMP180;9980;51.020;7.772;2023-08-07T13:08:20;97464.00;;;20.80
19666;BMP180;9980;51.020;7.772;2023-08-07T13:10:46;97465.00;;;20.80
19666;BMP180;9980;51.020;7.772;2023-08-07T13:13:16;97474.00;;;20.70
19666;BMP180;9980;51.020;7.772;2023-08-07T13:15:43;97464.00;;;20.70
19666;BMP180;9980;51.020;7.772;2023-08-07T13:18:10;97484.00;;;20.70
19666;BMP180;9980;51.020;7.772;2023-08-07T13:20:37;97483.00;;;20.70
19666;BMP180;9980;51.020;7.772;2023-08-07T13:23:04;97452.00;;;20.70
19666;BMP180;9980;51.020;7.772;2023-08-07T13:25:33;97463.00;;;20.70
19666;BMP180;9980;51.020;7.772;2023-08-07T13:28:00;97475.00;;;20.70
19666;BMP180;9980;51.020;7.772;2023-08-07T13:30:30;97475.00;;;20.80
19666;BMP180;9980;51.020;7.772;2023-08-07T13:33:02;97462.00;;;20.80
19666;BMP180;9980;51.020;7.772;2023-08-07T13:35:30;97472.00;;;20.80
19666;BMP180;9980;51.020;7.772;2023-08-07T13:37:57;97467.00;;;20.90
19666;BMP180;9980;51.020;7.772;2023-08-07T13:40:24;97482.00;;;20.90
19666;BMP180;9980;51.020;7.772;2023-08-07T13:42:52;97470.00;;;21.00
19666;BMP180;9980;51.020;7.772;2023-08-07T13:45:20;97471.00;;;21.10
19666;BMP180;9980;51.020;7.772;2023-08-07T13:47:47;97476.00;;;21.10
19666;BMP180;9980;51.020;7.772;2023-08-07T13:50:14;97490.00;;;21.10
19666;BMP180;9980;51.020;7.772;2023-08-07T13:52:41;97482.00;;;21.20
19666;BMP180;9980;51.020;7.772;2023-08-07T13:55:08;97497.00;;;21.30
19666;BMP180;9980;51.020;7.772;2023-08-07T13:57:36;97503.00;;;21.30
19666;BMP180;9980;51.020;7.772;2023-08-07T14:00:06;97516.00;;;21.40
19666;BMP180;9980;51.020;7.772;2023-08-07T14:02:35;97509.00;;;21.40
19666;BMP180;9980;51.020;7.772;2023-08-07T14:05:02;97510.00;;;21.40
19666;BMP180;9980;51.020;7.772;2023-08-07T14:07:29;97495.00;;;21.40
19666;BMP180;9980;51.020;7.772;2023-08-07T14:09:56;97503.00;;;21.40
19666;BMP180;9980;51.020;7.772;2023-08-07T14:12:23;97522.00;;;21.40
19666;BMP180;9980;51.020;7.772;2023-08-07T14:14:50;97512.00;;;21.40
19666;BMP180;9980;51.020;7.772;2023-08-07T14:17:17;97514.00;;;21.40
19666;BMP180;9980;51.020;7.772;2023-08-07T14:19:44;97529.00;;;21.50
19666;BMP180;9980;51.020;7.772;2023-08-07T14:22:11;97523.00;;;21.50
19666;BMP180;9980;51.020;7.772;2023-08-07T14:24:38;97523.00;;;21.60
19666;BMP180;9980;51.020;7.772;2023-08-07T14:27:05;97510.00;;;21.60
19666;BMP180;9980;51.020;7.772;2023-08-07T14:29:32;97505.00;;;21.70
19666;BMP180;9980;51.020;7.772;2023-08-07T14:32:00;97513.00;;;21.70
19666;BMP180;9980;51.020;7.772;2023-08-07T14:34:27;97522.00;;;21.80
19666;BMP180;9980;51.020;7.772;2023-08-07T14:36:54;97520.00;;;21.80